State of Illinois Online Auction

iBid
  Advanced Search
**CMS iBid
Maintained by CMSiBid1
Store Items
Completed Store Items
Upcoming Store Items
About the Store
View Titledesc Lot Number winning Bid Ends
Lot # 2254 - Gerber Pocket Knives (10 each) Lot # 2254 - Gerber Pocket Knives (10 each) 2254 $ 46.00 08/10/2018 09:39 PM
Lot # 2255 - Gerber Pocket Knives (10 each) Lot # 2255 - Gerber Pocket Knives (10 each) 2255 $ 40.00 08/10/2018 09:38 PM
Lot # 2256 - Gerber Pocket Knives (10 each) Lot # 2256 - Gerber Pocket Knives (10 each) 2256 $ 30.50 08/10/2018 09:40 PM
Lot # 2257 - Gerber Pocket Knives (20 each) Lot # 2257 - Gerber Pocket Knives (20 each) 2257 $ 61.00 08/10/2018 09:42 PM
Lot # 2258 - Gerber Pocket Knives (20 each) Lot # 2258 - Gerber Pocket Knives (20 each) 2258 $ 61.00 08/10/2018 09:44 PM
Lot # 2259 - 18volt Drill w/Case, Charger and Drill Lot # 2259 - 18volt Drill w/Case, Charger and Drill Bits 2259 $ 22.01 01/29/2016 10:34 AM
Lot # 2259 - Gerber Pocket Knives (50 each) Lot # 2259 - Gerber Pocket Knives (50 each) 2259 $ 153.50 08/10/2018 09:46 PM
Lot # 2260 - Smith & Wesson Pocket Knives (2 Lot # 2260 - Smith & Wesson Pocket Knives (20 each) 2260 $ 66.66 08/10/2018 09:48 PM
Lot # 2261 - Buck Pocket Knives (10 each) Lot # 2261 - Buck Pocket Knives (10 each) 2261 $ 141.50 08/10/2018 09:50 PM
Lot # 2262 - Buck Pocket Knives (10 each) Lot # 2262 - Buck Pocket Knives (10 each) 2262 $ 77.00 08/10/2018 09:52 PM
Lot # 2262 - Lot of Misc. Hand Tools Lot # 2262 - Lot of Misc. Hand Tools 2262 $ 70.69 11/27/2015 11:30 PM
Lot # 2263 - Buck Pocket Knives (10 each) Lot # 2263 - Buck Pocket Knives (10 each) 2263 $ 60.00 08/10/2018 09:54 PM
Lot # 2264 - Buck Pocket Knives (10 each) Lot # 2264 - Buck Pocket Knives (10 each) 2264 $ 46.00 08/10/2018 09:56 PM
Lot # 2265 - Milwaukee Pocket Knives (18 each Lot # 2265 - Milwaukee Pocket Knives (18 each) 2265 $ 48.00 08/10/2018 09:58 PM
Lot # 2266 - DeWalt Pocket Knives (11 each) Lot # 2266 - DeWalt Pocket Knives (11 each) 2266 $ 33.08 08/10/2018 10:00 PM
Lot # 2267 - 5.11 Pocket Knives (10 each) Lot # 2267 - 5.11 Pocket Knives (10 each) 2267 $ 27.50 08/10/2018 10:05 PM
Lot # 2268 - Kershaw Pocket Knives (10 each) Lot # 2268 - Kershaw Pocket Knives (10 each) 2268 $ 80.95 08/10/2018 10:04 PM
Lot # 2269 - Kershaw Pocket Knives (10 each) Lot # 2269 - Kershaw Pocket Knives (10 each) 2269 $ 178.42 08/10/2018 10:06 PM
Lot # 2269 - Oliver Double Arbor Universal Tilting S Lot # 2269 - Oliver Double Arbor Universal Tilting Saw Bench 2269 $ 455.00 11/27/2015 11:51 PM
Lot # 2270 - Kershaw Pocket Knives (10 each) Lot # 2270 - Kershaw Pocket Knives (10 each) 2270 $ 80.95 08/10/2018 10:08 PM
Lot # 2271 - Kershaw Pocket Knives (30 each) Lot # 2271 - Kershaw Pocket Knives (30 each) 2271 $ 234.80 08/10/2018 10:10 PM
Lot # 2272 - Case Pocket Knives (10 each) Lot # 2272 - Case Pocket Knives (10 each) 2272 $ 152.50 08/10/2018 10:12 PM
Lot # 2273 - Case Pocket Knives (11 each) Lot # 2273 - Case Pocket Knives (11 each) 2273 $ 122.50 08/10/2018 10:14 PM
Lot # 2273 - Lot of Power Tools Lot # 2273 - Lot of Power Tools 2273 $ 24.50 12/11/2015 07:00 PM
Lot # 2274 - Estwing Hammers (4 each) Lot # 2274 - Estwing Hammers (4 each) 2274 $ 26.25 08/10/2018 10:16 PM
Page 7 of 163
<<Prev   2   3   4   5   6   7   8   9   10   11   12   Next>>

Current system time: Feb 21, 2024 05:39:37